首页
METAR-TAF:

METAR-TAF

机场 :

莱斯博斯岛, 希腊

纬度: 39-04N, 经度: 026-36E, 海拔: 3米

当前天气观测

该预报发布于58分钟前的01:50 UTC
风速7节,风向
温度 17°C
湿度 63%
气压 1012 hPa
能见度10公里或以上
散云层高于2500英尺

METAR: LGMT 010150Z 19007KT 9999 SCT025 17/10 Q1012

时间: 05:48 (02:48 UTC)

预报

该预报发布于48分钟前的02:00 UTC
预报有效从01日的 03点(UTC)到 01日的 12点(UTC)
风速10节,风向东南
能见度10公里或以上
散云层高于2500英尺
几率 40% :
短暂存在
从 01日的 03点(UTC)到 01日的 12点(UTC)
能見度: 5000
少量云层高于1600英尺
少量云层高于1800英尺, 塔状积云.
散云层高于3000英尺
几率 30% :
短暂存在
从 01日的 03点(UTC)到 01日的 12点(UTC)
能見度: 4000
散云层高于1400英尺
少量云层高于1800英尺, 积雨云.
多云层高于2000英尺
多云层高于4000英尺
雷暴, 雨

TAF: LGMT 010200Z 0103/0112 14010KT 9999 SCT025 PROB40 TEMPO 0103/0112 5000 RA FEW016 FEW018TCU SCT030 PROB30 TEMPO 0103/0112 4000 TSRA SCT014 FEW018CB BKN020 BKN040

超过4000个机场的气象观测和天气预报(METAR&TAF报告)。

可查询的气象台以黄色和红色小点在地图上表示。

将鼠标移到小点上方,可查看气象台名称。

然后点击查看天气观测和预报。

如需切换地图:点击带黑十字的绿色按钮放大地图;点击带横线的绿色按钮缩小地图;或者点击绿色箭头查看邻近地区的地图。


METAR-TAF: